Columbia Airport, CA

3:27 AM PDT on October 19, 2019 (GMT -0700)
Columbia Airport

Weather History for KO22 - September, 2019

Change the Weather History Date:

Tuesday, September 17, 2019

  Actual Average (KMOD) Record (KMOD)
Temperature  
Mean Temperature 60 °F -  
Max Temperature 77 °F 86 °F 102 °F (1984)
Min Temperature 44 °F 56 °F 46 °F (1959)
Degree Days  
Heating Degree Days 4    
Growing Degree Days 10 (Base 50)    
Moisture  
Dew Point 45 °F    
Average Humidity 61    
Maximum Humidity 93    
Minimum Humidity 24    
Precipitation  
Precipitation 0.00 in - - ()
Sea Level Pressure  
Sea Level Pressure 30.03 in    
Wind  
Wind Speed 2 mph (SW)    
Max Wind Speed 9 mph    
Max Gust Speed 12 mph    
Visibility 10 miles    
Events      
Averages and records for this station are not official NWS values.
T = Trace of Precipitation, MM = Missing Value Source: NWS Daily Summary

Daily Weather History Graph

Daily Weather History Graph

Search for Another Location

Airport or City:

Astronomy

Sep. 17, 2019 Rise Set
Actual Time 6:45 AM PDT 7:06 PM PDT
Civil Twilight 6:18 AM PDT 7:32 PM PDT
Nautical Twilight 5:47 AM PDT 8:03 PM PDT
Astronomical Twilight 5:16 AM PDT 8:35 PM PDT
Moon 9:15 PM PDT (9/17) 9:51 AM PDT (9/17)
Length of Visible Light 13h 14m
Length of Day
12h 21m
Waning Gibbous, 88% of the Moon is Illuminated
Sep 17
Waning Gibbous
Sep 21
Last Quarter
Sep 28
New
Oct 5
First Quarter
Oct 13
Full

Hourly Weather History & Observations

Time (PDT) Temp. Windchill Dew Point Humidity Pressure Visibility Wind Dir Wind Speed Gust Speed Precip Events Conditions
12:15 AM 51.8 °F - 46.4 °F 82% 30.02 in 10.0 mi SSW 3.5 mph - N/A   Clear
12:35 AM 50.0 °F - 46.4 °F 87% 30.02 in 10.0 mi Variable 4.6 mph - N/A   Clear
12:55 AM 50.0 °F - 46.4 °F 87% 30.01 in 10.0 mi Variable 4.6 mph - N/A   Clear
1:15 AM 50.0 °F - 44.6 °F 82% 30.02 in 10.0 mi Calm Calm - N/A   Clear
1:35 AM 48.2 °F - 44.6 °F 87% 30.02 in 10.0 mi Calm Calm - N/A   Clear
1:55 AM 48.2 °F - 44.6 °F 87% 30.02 in 10.0 mi Calm Calm - N/A   Clear
2:15 AM 46.4 °F 45.2 °F 44.6 °F 93% 30.02 in 10.0 mi Variable 3.5 mph - N/A   Clear
2:35 AM 50.0 °F - 42.8 °F 76% 30.01 in 10.0 mi Calm Calm - N/A   Clear
2:55 AM 48.2 °F - 44.6 °F 87% 30.02 in 10.0 mi Calm Calm - N/A   Clear
3:15 AM 46.4 °F - 42.8 °F 87% 30.02 in 10.0 mi Calm Calm - N/A   Clear
3:35 AM 46.4 °F - 44.6 °F 93% 30.02 in 10.0 mi Calm Calm - N/A   Clear
3:55 AM 46.4 °F - 44.6 °F 93% 30.03 in 10.0 mi Calm Calm - N/A   Clear
4:15 AM 46.4 °F - 42.8 °F 87% 30.03 in 10.0 mi Calm Calm - N/A   Clear
4:35 AM 46.4 °F - 44.6 °F 93% 30.04 in 10.0 mi Calm Calm - N/A   Clear
4:55 AM 46.4 °F - 42.8 °F 87% 30.04 in 10.0 mi Calm Calm - N/A   Clear
5:15 AM 46.4 °F - 44.6 °F 93% 30.04 in 10.0 mi Calm Calm - N/A   Clear
5:35 AM 46.4 °F - 44.6 °F 93% 30.04 in 10.0 mi Calm Calm - N/A   Clear
5:55 AM 44.6 °F - 42.8 °F 93% 30.03 in 10.0 mi Calm Calm - N/A   Clear
6:15 AM 44.6 °F - 42.8 °F 93% 30.04 in 10.0 mi Calm Calm - N/A   Clear
6:35 AM 46.4 °F - 44.6 °F 93% 30.04 in 10.0 mi Calm Calm - N/A   Clear
6:55 AM 46.4 °F - 44.6 °F 93% 30.04 in 10.0 mi Calm Calm - N/A   Clear
7:15 AM 46.4 °F - 44.6 °F 93% 30.05 in 10.0 mi Calm Calm - N/A   Clear
7:35 AM 46.4 °F - 44.6 °F 93% 30.05 in 10.0 mi Calm Calm - N/A   Clear
7:55 AM 50.0 °F - 46.4 °F 87% 30.06 in 10.0 mi Calm Calm - N/A   Clear
8:15 AM 53.6 °F - 46.4 °F 77% 30.06 in 10.0 mi Calm Calm - N/A   Clear
8:35 AM 55.4 °F - 48.2 °F 77% 30.06 in 10.0 mi Calm Calm - N/A   Clear
8:55 AM 59.0 °F - 46.4 °F 63% 30.07 in 10.0 mi Calm Calm - N/A   Clear
9:15 AM 60.8 °F - 44.6 °F 55% 30.07 in 10.0 mi Calm Calm - N/A   Clear
9:35 AM 62.6 °F - 44.6 °F 52% 30.07 in 10.0 mi Calm Calm - N/A   Clear
9:55 AM 64.4 °F - 46.4 °F 52% 30.07 in 10.0 mi Calm Calm - N/A   Clear
10:15 AM 68.0 °F - 44.6 °F 43% 30.07 in 10.0 mi Variable 4.6 mph - N/A   Clear
10:35 AM 68.0 °F - 44.6 °F 43% 30.07 in 10.0 mi Calm Calm - N/A   Clear
10:55 AM 71.6 °F - 44.6 °F 38% 30.07 in 10.0 mi Calm Calm - N/A   Clear
11:15 AM 71.6 °F - 44.6 °F 38% 30.07 in 10.0 mi Calm Calm - N/A   Clear
11:35 AM 71.6 °F - 44.6 °F 38% 30.07 in 10.0 mi SSW 3.5 mph - N/A   Clear
11:55 AM 73.4 °F - 44.6 °F 36% 30.07 in 10.0 mi Variable 3.5 mph - N/A   Clear
12:15 PM 75.2 °F - 44.6 °F 34% 30.06 in 10.0 mi Variable 5.8 mph - N/A   Clear
12:55 PM 75.2 °F - 41.0 °F 29% 30.06 in 10.0 mi Variable 6.9 mph - N/A   Clear
1:15 PM 75.2 °F - 41.0 °F 29% 30.06 in 10.0 mi WSW 9.2 mph - N/A   Clear
1:35 PM 77.0 °F - 46.4 °F 34% 30.06 in 10.0 mi Variable 6.9 mph - N/A   Clear
1:55 PM 77.0 °F - 44.6 °F 32% 30.06 in 10.0 mi Variable 5.8 mph 11.5 mph N/A   Clear
2:15 PM 77.0 °F - 37.4 °F 24% 30.06 in 10.0 mi Calm Calm - N/A   Clear
2:35 PM 77.0 °F - 44.6 °F 32% 30.05 in 10.0 mi Variable 4.6 mph - N/A   Clear
2:55 PM 77.0 °F - 44.6 °F 32% 30.05 in 10.0 mi Variable 5.8 mph - N/A   Clear
3:15 PM 77.0 °F - 44.6 °F 32% 30.04 in 10.0 mi Variable 6.9 mph - N/A   Clear
3:35 PM 77.0 °F - 44.6 °F 32% 30.04 in 10.0 mi Variable 4.6 mph - N/A   Clear
3:55 PM 77.0 °F - 42.8 °F 29% 30.03 in 10.0 mi Variable 4.6 mph - N/A   Clear
4:15 PM 77.0 °F - 42.8 °F 29% 30.02 in 10.0 mi Variable 5.8 mph - N/A   Clear
4:35 PM 77.0 °F - 42.8 °F 29% 30.02 in 10.0 mi Variable 5.8 mph - N/A   Clear
4:55 PM 77.0 °F - 42.8 °F 29% 30.02 in 10.0 mi Variable 6.9 mph - N/A   Clear
5:15 PM 75.2 °F - 42.8 °F 31% 30.02 in 10.0 mi Variable 5.8 mph - N/A   Clear
5:35 PM 75.2 °F - 42.8 °F 31% 30.01 in 10.0 mi SW 6.9 mph - N/A   Clear
5:55 PM 75.2 °F - 42.8 °F 31% 30.01 in 10.0 mi Variable 6.9 mph - N/A   Clear
6:15 PM 73.4 °F - 41.0 °F 31% 30.01 in 10.0 mi WSW 6.9 mph - N/A   Clear
6:35 PM 71.6 °F - 41.0 °F 33% 30.01 in 10.0 mi Variable 5.8 mph - N/A   Clear
6:55 PM 69.8 °F - 42.8 °F 38% 30.01 in 10.0 mi SW 5.8 mph - N/A   Clear
7:15 PM 68.0 °F - 42.8 °F 40% 30.01 in 10.0 mi SW 4.6 mph - N/A   Clear
7:35 PM 66.2 °F - 44.6 °F 46% 30.01 in 10.0 mi SW 3.5 mph - N/A   Clear
7:55 PM 64.4 °F - 44.6 °F 49% 30.01 in 10.0 mi Variable 4.6 mph - N/A   Clear
8:15 PM 62.6 °F - 46.4 °F 55% 30.01 in 10.0 mi SSW 3.5 mph - N/A   Clear
8:35 PM 60.8 °F - 48.2 °F 63% 30.01 in 10.0 mi Calm Calm - N/A   Clear
8:55 PM 59.0 °F - 48.2 °F 67% 30.01 in 10.0 mi Variable 3.5 mph - N/A   Clear
9:15 PM 59.0 °F - 48.2 °F 67% 30.01 in 10.0 mi Variable 3.5 mph - N/A   Clear
9:35 PM 57.2 °F - 48.2 °F 72% 30.01 in 10.0 mi Variable 4.6 mph - N/A   Clear
9:55 PM 57.2 °F - 46.4 °F 67% 30.01 in 10.0 mi Calm Calm - N/A   Clear
10:15 PM 55.4 °F - 46.4 °F 72% 30.01 in 10.0 mi Calm Calm - N/A   Clear
10:35 PM 53.6 °F - 48.2 °F 82% 30.01 in 10.0 mi North - - N/A   Clear
10:55 PM 55.4 °F - 48.2 °F 77% 30.01 in 10.0 mi Variable 3.5 mph - N/A   Clear
11:35 PM 53.6 °F - 46.4 °F 77% 30.01 in 10.0 mi Calm Calm - N/A   Clear
11:55 PM 53.6 °F - 46.4 °F 77% 30.00 in 10.0 mi Calm Calm - N/A   Clear